Weather at Harley Airport

Public forecast

Using degrees Fahrenheit for public forecast. Weather courtesy of forecast.io.

Closest aviation weather report (METAR) to Harley Airport

Closest report is Stockton Metropolitan Airport, 3.4 nm (6.3 km) S. Retrieved 2020/10/31 23:55 UTC (43 minutes ago):

KSCK 312355Z 00000KT 9SM CLR 27/04 A3005 RMK AO2 SLP173 T02720039 10272 20183 56007

Closest aviation forecast (TAF) to Harley Airport

Closest forecast is Stockton Metropolitan Airport, 3.4 nm (6.3 km) S. Retrieved 2020-11-01 00:22 UTC (16 minutes ago):

TAF KSCK 312320Z 0100/0124 VRB04KT P6SM SKC